createdAt,value
2023-07-19T00:01:07.553Z,99734.34
2023-07-19T00:03:34.335Z,99740.13
2023-07-19T00:06:01.995Z,99744.38
2023-07-19T00:08:29.245Z,99743.94
2023-07-19T00:10:55.908Z,99750.16
2023-07-19T00:13:22.657Z,99745.94
2023-07-19T00:15:49.300Z,99747.78
2023-07-19T00:18:16.080Z,99737.72
2023-07-19T00:20:42.727Z,99734.47
2023-07-19T00:23:09.508Z,99727.25
2023-07-19T00:25:36.213Z,99718.06
2023-07-19T00:28:03.074Z,99707.75
2023-07-19T00:30:29.707Z,99696.78
2023-07-19T00:32:56.411Z,99702.25
2023-07-19T00:35:23.151Z,99706.97
2023-07-19T00:37:49.881Z,99692.34
2023-07-19T00:40:16.541Z,99693.94
2023-07-19T00:42:43.219Z,99691.13
2023-07-19T00:45:10.381Z,99678.41
2023-07-19T00:47:39.536Z,99674.72
2023-07-19T00:50:08.237Z,99673.00
2023-07-19T00:52:35.575Z,99672.47
2023-07-19T00:55:02.576Z,99668.63
2023-07-19T00:57:29.291Z,99681.06
2023-07-19T00:59:56.042Z,99683.06
2023-07-19T01:02:23.630Z,99669.63
2023-07-19T01:04:50.355Z,99668.19
2023-07-19T01:07:17.888Z,99659.97
2023-07-19T01:09:45.046Z,99656.22
2023-07-19T01:12:11.719Z,99656.00
2023-07-19T01:14:38.362Z,99669.72
2023-07-19T01:17:05.345Z,99665.34
2023-07-19T01:19:31.991Z,99667.47
2023-07-19T01:21:59.229Z,99668.19
2023-07-19T01:24:25.937Z,99670.16
2023-07-19T01:26:52.738Z,99668.94
2023-07-19T01:29:19.459Z,99672.75
2023-07-19T01:31:46.132Z,99679.03
2023-07-19T01:34:12.780Z,99669.28
2023-07-19T01:36:39.392Z,99676.38
2023-07-19T01:39:06.054Z,99664.69
2023-07-19T01:41:32.693Z,99658.81
2023-07-19T01:43:59.413Z,99658.78
2023-07-19T01:46:26.090Z,99661.69
2023-07-19T01:48:52.726Z,99666.84
2023-07-19T01:51:19.697Z,99669.22
2023-07-19T01:53:46.619Z,99662.69
2023-07-19T01:56:13.245Z,99663.41
2023-07-19T01:58:39.954Z,99665.16
2023-07-19T02:01:06.639Z,99660.19
2023-07-19T02:03:33.421Z,99660.63
2023-07-19T02:06:01.312Z,99667.06
2023-07-19T02:08:28.217Z,99671.72
2023-07-19T02:10:54.947Z,99653.59
2023-07-19T02:13:21.602Z,99662.38
2023-07-19T02:15:48.399Z,99655.75
2023-07-19T02:18:15.101Z,99669.94
2023-07-19T02:20:46.616Z,99672.16
2023-07-19T02:23:14.561Z,99668.72
2023-07-19T02:25:42.532Z,99664.50
2023-07-19T02:28:11.194Z,99665.91
2023-07-19T02:30:42.764Z,99679.50
2023-07-19T02:33:12.814Z,99685.91
2023-07-19T02:35:39.592Z,99691.81
2023-07-19T02:38:06.594Z,99688.84
2023-07-19T02:40:33.362Z,99689.44
2023-07-19T02:43:00.030Z,99689.44
2023-07-19T02:45:26.830Z,99697.13
2023-07-19T02:47:53.732Z,99690.03
2023-07-19T02:50:20.946Z,99686.22
2023-07-19T02:52:47.981Z,99688.13
2023-07-19T02:55:14.643Z,99689.06
2023-07-19T02:57:41.299Z,99681.56
2023-07-19T03:00:08.369Z,99676.56
2023-07-19T03:02:35.069Z,99669.00
2023-07-19T03:05:01.816Z,99669.63
2023-07-19T03:07:28.564Z,99672.56
2023-07-19T03:09:55.210Z,99660.97
2023-07-19T03:12:21.895Z,99669.06
2023-07-19T03:14:48.594Z,99665.44
2023-07-19T03:17:15.213Z,99668.06
2023-07-19T03:19:41.896Z,99670.34
2023-07-19T03:22:08.552Z,99656.56
2023-07-19T03:24:35.184Z,99668.06
2023-07-19T03:27:01.800Z,99680.75
2023-07-19T03:29:28.422Z,99666.13
2023-07-19T03:31:55.130Z,99672.47
2023-07-19T03:34:21.784Z,99677.53
2023-07-19T03:36:48.521Z,99678.03
2023-07-19T03:39:15.151Z,99672.19
2023-07-19T03:41:41.853Z,99668.44
2023-07-19T03:44:08.480Z,99669.34
2023-07-19T03:46:35.139Z,99669.75
2023-07-19T03:49:01.782Z,99670.47
2023-07-19T03:51:28.506Z,99666.53
2023-07-19T03:53:55.253Z,99668.50
2023-07-19T03:56:21.877Z,99674.97
2023-07-19T03:58:48.555Z,99671.06
2023-07-19T04:01:15.490Z,99670.03
2023-07-19T04:03:42.369Z,99676.09
2023-07-19T04:06:09.064Z,99676.28
2023-07-19T04:08:36.193Z,99681.44
2023-07-19T04:11:02.945Z,99683.28
2023-07-19T04:13:29.606Z,99690.63
2023-07-19T04:15:56.275Z,99698.13
2023-07-19T04:18:22.903Z,99696.16
2023-07-19T04:20:58.689Z,99701.28
2023-07-19T04:23:26.399Z,99689.97
2023-07-19T04:25:53.070Z,99691.53
2023-07-19T04:28:19.707Z,99688.97
2023-07-19T04:30:48.378Z,99692.38
2023-07-19T04:33:16.770Z,99689.81
2023-07-19T04:35:43.530Z,99694.69
2023-07-19T04:38:10.168Z,99697.66
2023-07-19T04:40:36.855Z,99701.66
2023-07-19T04:43:03.535Z,99699.06
2023-07-19T04:45:30.216Z,99697.63
2023-07-19T04:47:57.295Z,99689.09
2023-07-19T04:50:24.009Z,99693.72
2023-07-19T04:52:50.634Z,99691.16
2023-07-19T04:55:17.283Z,99692.31
2023-07-19T04:57:43.942Z,99685.94
2023-07-19T05:00:10.876Z,99692.53
2023-07-19T05:02:37.531Z,99690.84
2023-07-19T05:05:04.502Z,99683.53
2023-07-19T05:07:31.117Z,99695.47
2023-07-19T05:09:57.813Z,99697.69
2023-07-19T05:12:24.496Z,99698.38
2023-07-19T05:14:51.082Z,99699.06
2023-07-19T05:17:17.721Z,99706.00
2023-07-19T05:19:44.376Z,99708.88
2023-07-19T05:22:10.991Z,99705.31
2023-07-19T05:24:38.515Z,99707.06
2023-07-19T05:27:05.604Z,99710.22
2023-07-19T05:29:32.346Z,99706.31
2023-07-19T05:31:59.070Z,99707.50
2023-07-19T05:34:25.861Z,99705.75
2023-07-19T05:36:52.686Z,99696.97
2023-07-19T05:39:19.331Z,99705.25
2023-07-19T05:41:46.007Z,99704.22
2023-07-19T05:44:13.185Z,99714.16
2023-07-19T05:46:39.989Z,99719.44
2023-07-19T05:49:06.602Z,99712.72
2023-07-19T05:51:33.199Z,99721.50
2023-07-19T05:53:59.948Z,99712.66
2023-07-19T05:56:26.600Z,99717.44
2023-07-19T05:58:53.278Z,99724.94
2023-07-19T06:01:20.690Z,99722.41
2023-07-19T06:03:48.796Z,99731.00
2023-07-19T06:06:15.576Z,99736.81
2023-07-19T06:08:42.381Z,99730.78
2023-07-19T06:11:09.022Z,99731.03
2023-07-19T06:13:35.802Z,99728.69
2023-07-19T06:16:02.617Z,99730.69
2023-07-19T06:18:29.336Z,99730.69
2023-07-19T06:20:56.199Z,99734.13
2023-07-19T06:23:23.133Z,99729.22
2023-07-19T06:25:51.077Z,99722.19
2023-07-19T06:28:17.906Z,99730.31
2023-07-19T06:30:44.618Z,99733.69
2023-07-19T06:33:11.283Z,99725.22
2023-07-19T06:35:37.985Z,99725.63
2023-07-19T06:38:04.820Z,99729.28
2023-07-19T06:40:31.503Z,99736.84
2023-07-19T06:42:58.154Z,99727.66
2023-07-19T06:45:24.778Z,99728.50
2023-07-19T06:47:51.456Z,99725.97
2023-07-19T06:50:18.152Z,99729.94
2023-07-19T06:52:44.811Z,99728.69
2023-07-19T06:55:11.442Z,99725.75
2023-07-19T06:57:38.115Z,99716.31
2023-07-19T07:00:05.462Z,99709.41
2023-07-19T07:02:32.165Z,99710.97
2023-07-19T07:04:58.779Z,99710.09
2023-07-19T07:07:25.420Z,99723.09
2023-07-19T07:09:52.058Z,99717.84
2023-07-19T07:12:18.685Z,99700.97
2023-07-19T07:14:45.545Z,99699.38
2023-07-19T07:17:13.056Z,99702.97
2023-07-19T07:19:39.693Z,99701.50
2023-07-19T07:22:06.562Z,99688.53
2023-07-19T07:24:33.284Z,99690.75
2023-07-19T07:26:59.940Z,99687.22
2023-07-19T07:29:26.674Z,99685.66
2023-07-19T07:31:53.352Z,99695.78
2023-07-19T07:34:21.363Z,99701.28
2023-07-19T07:36:49.808Z,99702.94
2023-07-19T07:39:16.457Z,99709.66
2023-07-19T07:41:43.066Z,99713.22
2023-07-19T07:44:09.961Z,99709.47
2023-07-19T07:46:36.627Z,99706.56
2023-07-19T07:49:03.271Z,99697.31
2023-07-19T07:51:29.949Z,99700.84
2023-07-19T07:53:56.643Z,99698.06
2023-07-19T07:56:24.994Z,99707.38
2023-07-19T07:58:51.643Z,99698.56
2023-07-19T08:01:18.470Z,99701.69
2023-07-19T08:03:45.405Z,99704.28
2023-07-19T08:06:12.151Z,99707.53
2023-07-19T08:08:38.808Z,99707.84
2023-07-19T08:11:05.837Z,99706.50
2023-07-19T08:13:32.679Z,99704.97
2023-07-19T08:15:59.370Z,99686.09
2023-07-19T08:18:25.956Z,99686.66
2023-07-19T08:20:52.625Z,99680.25
2023-07-19T08:23:19.500Z,99680.41
2023-07-19T08:25:46.293Z,99673.84
2023-07-19T08:28:12.932Z,99673.34
2023-07-19T08:30:39.654Z,99672.59
2023-07-19T08:33:06.328Z,99680.63
2023-07-19T08:35:34.524Z,99684.06
2023-07-19T08:38:01.145Z,99677.66
2023-07-19T08:40:31.755Z,99670.28
2023-07-19T08:42:58.439Z,99673.41
2023-07-19T08:45:26.916Z,99672.81
2023-07-19T08:47:53.635Z,99681.44
2023-07-19T08:50:21.929Z,99680.59
2023-07-19T08:52:48.685Z,99684.31
2023-07-19T08:55:15.312Z,99691.03
2023-07-19T08:57:44.639Z,99693.09
2023-07-19T09:00:11.753Z,99694.94
2023-07-19T09:02:38.476Z,99696.75
2023-07-19T09:05:07.041Z,99702.13
2023-07-19T09:07:36.857Z,99707.28
2023-07-19T09:10:04.967Z,99695.78
2023-07-19T09:12:39.443Z,99695.47
2023-07-19T09:15:08.136Z,99697.56
2023-07-19T09:17:45.228Z,99703.88
2023-07-19T09:20:12.816Z,99691.53
2023-07-19T09:22:40.713Z,99690.09
2023-07-19T09:25:10.562Z,99694.84
2023-07-19T09:27:38.187Z,99689.84
2023-07-19T09:30:15.403Z,99694.28
2023-07-19T09:32:42.378Z,99690.13
2023-07-19T09:35:10.120Z,99695.03
2023-07-19T09:37:36.937Z,99684.59
2023-07-19T09:40:05.510Z,99684.78
2023-07-19T09:42:33.027Z,99686.47
2023-07-19T09:44:59.808Z,99676.13
2023-07-19T09:47:30.164Z,99681.84
2023-07-19T09:49:57.548Z,99679.56
2023-07-19T09:52:26.481Z,99679.47
2023-07-19T09:54:54.395Z,99686.31
2023-07-19T09:57:24.507Z,99685.06
2023-07-19T09:59:52.196Z,99681.69
2023-07-19T10:02:19.479Z,99676.44
2023-07-19T10:04:49.090Z,99682.38
2023-07-19T10:07:37.320Z,99687.81
2023-07-19T10:10:08.818Z,99671.63
2023-07-19T10:12:38.093Z,99675.78
2023-07-19T10:15:09.250Z,99665.28
2023-07-19T10:18:00.550Z,99658.91
2023-07-19T10:20:36.492Z,99656.22
2023-07-19T10:23:07.646Z,99654.91
2023-07-19T10:25:37.618Z,99643.91
2023-07-19T10:28:09.085Z,99648.13
2023-07-19T10:30:45.028Z,99653.88
2023-07-19T10:33:18.194Z,99650.97
2023-07-19T10:35:45.129Z,99635.81
2023-07-19T10:38:14.738Z,99641.50
2023-07-19T10:40:43.871Z,99638.56
2023-07-19T10:43:10.611Z,99622.94
2023-07-19T10:45:37.578Z,99624.47
2023-07-19T10:48:05.614Z,99616.19
2023-07-19T10:50:32.273Z,99613.91
2023-07-19T10:52:58.960Z,99611.72
2023-07-19T10:55:51.046Z,99596.25
2023-07-19T10:58:15.823Z,99594.06
2023-07-19T11:00:42.579Z,99594.28
2023-07-19T11:03:13.877Z,99582.88
2023-07-19T11:05:47.520Z,99585.88
2023-07-19T11:08:40.334Z,99598.81
2023-07-19T11:11:08.425Z,99618.59
2023-07-19T11:13:35.064Z,99612.47
2023-07-19T11:16:01.672Z,99604.50
2023-07-19T11:18:41.485Z,99605.44
2023-07-19T11:21:08.605Z,99608.34
2023-07-19T11:23:40.362Z,99607.22
2023-07-19T11:26:09.088Z,99600.81
2023-07-19T11:28:43.885Z,99600.38
2023-07-19T11:31:11.620Z,99599.84
2023-07-19T11:33:38.662Z,99593.16
2023-07-19T11:36:09.575Z,99600.38
2023-07-19T11:38:37.830Z,99593.88
2023-07-19T11:41:04.691Z,99589.91
2023-07-19T11:43:31.288Z,99597.31
2023-07-19T11:45:57.926Z,99585.44
2023-07-19T11:48:25.819Z,99591.31
2023-07-19T11:50:54.455Z,99595.56
2023-07-19T11:53:21.054Z,99589.13
2023-07-19T11:55:47.723Z,99588.59
2023-07-19T11:58:14.320Z,99586.97
2023-07-19T12:00:41.087Z,99594.59
2023-07-19T12:03:07.833Z,99591.59
2023-07-19T12:05:34.565Z,99586.41
2023-07-19T12:08:01.261Z,99582.91
2023-07-19T12:10:28.065Z,99574.94
2023-07-19T12:12:54.756Z,99573.31
2023-07-19T12:15:21.365Z,99570.59
2023-07-19T12:17:48.239Z,99568.66
2023-07-19T12:20:14.889Z,99569.44
2023-07-19T12:22:43.775Z,99563.16
2023-07-19T12:25:11.163Z,99555.31
2023-07-19T12:27:38.858Z,99542.03
2023-07-19T12:30:06.588Z,99544.84
2023-07-19T12:32:33.306Z,99523.66
2023-07-19T12:35:01.463Z,99530.06
2023-07-19T12:37:28.116Z,99526.72
2023-07-19T12:39:54.763Z,99510.97
2023-07-19T12:42:21.482Z,99503.13
2023-07-19T12:44:48.112Z,99510.38
2023-07-19T12:47:14.865Z,99508.28
2023-07-19T12:49:41.519Z,99511.22
2023-07-19T12:52:08.547Z,99501.72
2023-07-19T12:54:35.161Z,99502.50
2023-07-19T12:57:01.829Z,99504.91
2023-07-19T12:59:28.431Z,99499.56
2023-07-19T13:01:55.490Z,99488.28
2023-07-19T13:04:22.171Z,99484.06
2023-07-19T13:06:48.774Z,99482.31
2023-07-19T13:09:15.789Z,99488.59
2023-07-19T13:11:42.630Z,99487.44
2023-07-19T13:14:10.105Z,99493.38
2023-07-19T13:16:36.787Z,99483.34
2023-07-19T13:19:03.406Z,99474.59
2023-07-19T13:21:30.334Z,99462.09
2023-07-19T13:23:57.257Z,99465.00
2023-07-19T13:26:24.142Z,99450.72
2023-07-19T13:28:50.873Z,99451.41
2023-07-19T13:31:18.517Z,99443.09
2023-07-19T13:33:45.297Z,99428.66
2023-07-19T13:38:42.733Z,99420.13
2023-07-19T13:41:09.728Z,99417.25
2023-07-19T13:43:36.570Z,99414.59
2023-07-19T13:46:03.715Z,99397.91
2023-07-19T13:48:30.495Z,99403.47
2023-07-19T13:50:57.324Z,99397.59
2023-07-19T13:53:24.052Z,99378.22
2023-07-19T13:55:50.702Z,99373.03
2023-07-19T13:58:17.409Z,99367.75
2023-07-19T14:00:44.389Z,99367.41
2023-07-19T14:03:11.509Z,99361.81
2023-07-19T14:05:39.240Z,99378.88
2023-07-19T14:08:06.062Z,99388.59
2023-07-19T14:10:32.821Z,99389.06
2023-07-19T14:13:00.425Z,99390.41
2023-07-19T14:15:27.870Z,99379.41
2023-07-19T14:17:54.549Z,99384.31
2023-07-19T14:20:21.207Z,99366.03
2023-07-19T14:22:47.856Z,99380.34
2023-07-19T14:25:14.629Z,99382.06
2023-07-19T14:27:41.261Z,99378.91
2023-07-19T14:30:08.866Z,99379.22
2023-07-19T14:32:35.490Z,99379.25
2023-07-19T14:35:02.375Z,99393.28
2023-07-19T14:37:29.120Z,99412.66
2023-07-19T14:39:55.888Z,99415.06
2023-07-19T14:42:23.262Z,99409.63
2023-07-19T14:44:49.934Z,99406.53
2023-07-19T14:47:16.772Z,99399.69
2023-07-19T14:49:43.469Z,99402.03
2023-07-19T14:52:10.157Z,99412.88
2023-07-19T14:54:36.749Z,99410.91
2023-07-19T14:57:06.214Z,99429.44
2023-07-19T14:59:33.230Z,99424.59
2023-07-19T15:02:01.056Z,99412.09
2023-07-19T15:04:28.054Z,99420.59
2023-07-19T15:06:54.747Z,99412.50
2023-07-19T15:09:21.416Z,99411.59
2023-07-19T15:11:48.501Z,99415.25
2023-07-19T15:14:15.362Z,99408.63
2023-07-19T15:16:42.128Z,99397.47
2023-07-19T15:19:08.929Z,99402.81
2023-07-19T15:21:35.797Z,99404.50
2023-07-19T15:24:02.446Z,99401.28
2023-07-19T15:26:34.577Z,99394.53
2023-07-19T15:29:02.056Z,99397.81
2023-07-19T15:31:29.902Z,99399.56
2023-07-19T15:33:56.706Z,99409.94
2023-07-19T15:36:23.601Z,99408.63
2023-07-19T15:38:51.098Z,99407.84
2023-07-19T15:41:19.282Z,99427.41
2023-07-19T15:43:46.494Z,99412.41
2023-07-19T15:46:13.290Z,99409.75
2023-07-19T15:48:40.033Z,99410.69
2023-07-19T15:51:07.176Z,99411.22
2023-07-19T15:53:35.435Z,99400.84
2023-07-19T15:56:02.071Z,99402.28
2023-07-19T15:58:28.704Z,99398.69
2023-07-19T16:00:56.042Z,99387.47
2023-07-19T16:03:23.066Z,99381.13
2023-07-19T16:05:50.233Z,99382.06
2023-07-19T16:08:16.889Z,99373.66
2023-07-19T16:10:43.606Z,99369.94
2023-07-19T16:13:10.337Z,99354.69
2023-07-19T16:15:36.975Z,99355.44
2023-07-19T16:18:03.660Z,99343.66
2023-07-19T16:20:30.345Z,99354.75
2023-07-19T16:22:56.983Z,99347.94
2023-07-19T16:25:23.674Z,99348.69
2023-07-19T16:27:50.381Z,99353.81
2023-07-19T16:30:17.055Z,99354.03
2023-07-19T16:32:43.743Z,99359.75
2023-07-19T16:35:10.408Z,99365.69
2023-07-19T16:37:37.060Z,99371.06
2023-07-19T16:40:03.830Z,99382.31
2023-07-19T16:42:30.540Z,99394.91
2023-07-19T16:44:57.138Z,99375.34
2023-07-19T16:47:23.831Z,99374.50
2023-07-19T16:49:50.507Z,99368.41
2023-07-19T16:52:17.139Z,99371.78
2023-07-19T16:54:43.733Z,99377.91
2023-07-19T16:57:10.401Z,99374.13
2023-07-19T16:59:36.999Z,99376.25
2023-07-19T17:02:04.036Z,99371.38
2023-07-19T17:04:30.971Z,99370.28
2023-07-19T17:06:58.060Z,99370.59
2023-07-19T17:09:24.861Z,99370.03
2023-07-19T17:11:51.631Z,99370.78
2023-07-19T17:14:18.285Z,99371.66
2023-07-19T17:16:54.651Z,99359.56
2023-07-19T17:19:28.701Z,99363.63
2023-07-19T17:21:55.358Z,99360.88
2023-07-19T17:24:21.984Z,99366.16
2023-07-19T17:26:48.599Z,99365.84
2023-07-19T17:29:15.203Z,99359.50
2023-07-19T17:31:41.821Z,99359.16
2023-07-19T17:34:08.444Z,99352.56
2023-07-19T17:36:35.159Z,99344.47
2023-07-19T17:39:01.851Z,99337.69
2023-07-19T17:41:29.004Z,99333.88
2023-07-19T17:43:55.584Z,99322.84
2023-07-19T17:46:22.236Z,99314.63
2023-07-19T17:48:48.869Z,99305.19
2023-07-19T17:51:15.589Z,99304.53
2023-07-19T17:53:42.267Z,99291.53
2023-07-19T17:56:08.921Z,99285.75
2023-07-19T17:58:35.545Z,99277.34
2023-07-19T18:01:05.553Z,99277.81
2023-07-19T18:03:32.486Z,99286.94
2023-07-19T18:05:59.181Z,99286.41
2023-07-19T18:08:28.895Z,99296.28
2023-07-19T18:10:55.933Z,99297.44
2023-07-19T18:13:22.678Z,99307.72
2023-07-19T18:15:49.336Z,99312.97
2023-07-19T18:18:16.130Z,99318.50
2023-07-19T18:20:42.911Z,99320.59
2023-07-19T18:23:09.731Z,99325.81
2023-07-19T18:25:36.398Z,99327.91
2023-07-19T18:28:03.021Z,99323.31
2023-07-19T18:30:29.698Z,99326.34
2023-07-19T18:32:56.885Z,99319.94
2023-07-19T18:35:23.594Z,99336.47
2023-07-19T18:37:50.204Z,99334.66
2023-07-19T18:40:16.860Z,99329.41
2023-07-19T18:42:43.495Z,99340.91
2023-07-19T18:45:10.689Z,99338.69
2023-07-19T18:47:37.385Z,99336.19
2023-07-19T18:50:04.292Z,99344.09
2023-07-19T18:52:30.924Z,99340.72
2023-07-19T18:54:57.538Z,99343.56
2023-07-19T18:57:24.263Z,99345.44
2023-07-19T18:59:50.899Z,99357.09
2023-07-19T19:02:17.510Z,99351.38
2023-07-19T19:04:44.280Z,99362.56
2023-07-19T19:07:10.950Z,99370.81
2023-07-19T19:09:37.567Z,99373.53
2023-07-19T19:12:04.401Z,99374.69
2023-07-19T19:14:31.025Z,99380.06
2023-07-19T19:16:57.676Z,99383.81
2023-07-19T19:19:24.325Z,99372.78
2023-07-19T19:21:50.911Z,99371.81
2023-07-19T19:24:17.623Z,99379.72
2023-07-19T19:26:44.305Z,99373.63
2023-07-19T19:29:10.927Z,99381.41
2023-07-19T19:31:37.583Z,99385.25
2023-07-19T19:34:05.197Z,99384.94
2023-07-19T19:36:31.946Z,99387.28
2023-07-19T19:38:58.719Z,99387.97
2023-07-19T19:41:25.541Z,99393.19
2023-07-19T19:43:52.292Z,99393.72
2023-07-19T19:46:18.990Z,99395.41
2023-07-19T19:48:45.660Z,99374.41
2023-07-19T19:51:12.331Z,99375.28
2023-07-19T19:53:38.980Z,99369.75
2023-07-19T19:58:35.222Z,99390.09
2023-07-19T20:01:02.214Z,99385.75
2023-07-19T20:05:58.532Z,99385.03
2023-07-19T20:08:25.179Z,99374.69
2023-07-19T20:13:21.344Z,99373.06
2023-07-19T20:15:49.582Z,99368.03
2023-07-19T20:20:47.231Z,99367.41
2023-07-19T20:23:13.908Z,99364.28
2023-07-19T20:26:00.669Z,99361.72
2023-07-19T20:28:27.521Z,99368.66
2023-07-19T20:30:54.265Z,99372.34
2023-07-19T20:33:20.962Z,99371.50
2023-07-19T20:43:17.221Z,99366.69
2023-07-19T20:45:43.945Z,99369.31
2023-07-19T20:48:10.652Z,99362.25
2023-07-19T20:50:37.317Z,99354.88
2023-07-19T20:53:04.246Z,99355.97
2023-07-19T20:55:30.849Z,99356.38
2023-07-19T20:57:57.465Z,99351.28
2023-07-19T21:00:24.106Z,99361.22
2023-07-19T21:02:50.814Z,99362.91
2023-07-19T21:05:17.436Z,99360.06
2023-07-19T21:07:44.235Z,99358.66
2023-07-19T21:10:11.295Z,99368.53
2023-07-19T21:12:37.936Z,99371.94
2023-07-19T21:15:04.925Z,99367.25
2023-07-19T21:17:31.631Z,99376.97
2023-07-19T21:19:58.403Z,99365.13
2023-07-19T21:22:25.050Z,99375.09
2023-07-19T21:27:21.507Z,99388.34
2023-07-19T21:29:48.174Z,99384.97
2023-07-19T21:32:14.814Z,99389.06
2023-07-19T21:34:41.461Z,99392.31
2023-07-19T21:37:08.203Z,99388.97
2023-07-19T21:39:34.825Z,99391.78
2023-07-19T21:42:01.500Z,99398.97
2023-07-19T21:44:28.221Z,99393.25
2023-07-19T21:46:54.883Z,99392.97
2023-07-19T21:49:21.504Z,99402.69
2023-07-19T21:51:48.209Z,99417.25
2023-07-19T21:54:14.813Z,99416.84
2023-07-19T21:56:41.450Z,99421.81
2023-07-19T21:59:08.059Z,99417.72
2023-07-19T22:01:34.827Z,99410.13
2023-07-19T22:04:01.625Z,99406.22
2023-07-19T22:06:28.296Z,99409.41
2023-07-19T22:08:54.933Z,99402.72
2023-07-19T22:11:21.623Z,99404.81
2023-07-19T22:13:48.262Z,99407.50
2023-07-19T22:16:14.880Z,99402.25
2023-07-19T22:18:41.490Z,99405.94
2023-07-19T22:21:20.335Z,99415.78
2023-07-19T22:23:47.934Z,99416.97
2023-07-19T22:26:14.562Z,99409.78
2023-07-19T22:28:41.205Z,99411.97
2023-07-19T22:31:07.901Z,99415.88
2023-07-19T22:33:34.680Z,99415.25
2023-07-19T22:36:01.361Z,99407.47
2023-07-19T22:38:28.001Z,99402.56
2023-07-19T22:40:54.655Z,99408.31
2023-07-19T22:43:21.277Z,99395.81
2023-07-19T22:45:47.903Z,99399.81
2023-07-19T22:48:14.503Z,99396.94
2023-07-19T22:50:41.362Z,99383.56
2023-07-19T22:53:08.023Z,99383.97
2023-07-19T22:55:34.665Z,99387.91
2023-07-19T22:58:01.492Z,99377.72
2023-07-19T23:00:28.190Z,99385.78
2023-07-19T23:02:55.041Z,99383.22
2023-07-19T23:05:21.787Z,99386.53
2023-07-19T23:07:48.421Z,99385.84
2023-07-19T23:10:15.079Z,99386.47
2023-07-19T23:12:41.744Z,99395.56
2023-07-19T23:15:09.369Z,99396.91
2023-07-19T23:17:36.772Z,99388.84
2023-07-19T23:20:03.683Z,99382.28
2023-07-19T23:22:30.400Z,99374.72
2023-07-19T23:24:57.130Z,99391.09
2023-07-19T23:27:23.745Z,99388.41
2023-07-19T23:29:50.426Z,99381.19
2023-07-19T23:32:17.057Z,99382.88
2023-07-19T23:34:43.687Z,99384.50
2023-07-19T23:37:10.358Z,99394.72
2023-07-19T23:39:37.020Z,99385.56
2023-07-19T23:42:03.751Z,99411.78
2023-07-19T23:44:30.432Z,99422.72
2023-07-19T23:46:57.156Z,99409.72
2023-07-19T23:49:23.783Z,99406.63
2023-07-19T23:51:50.507Z,99404.91
2023-07-19T23:54:17.270Z,99398.56
2023-07-19T23:56:43.898Z,99402.81
2023-07-19T23:59:10.517Z,99387.09
